Terminal Aerodrome Forecast
Issued by NWS

Home | Current Version | Previous Version | Text Only | Print | Product List | Glossary On
Versions: 1 2 3 4 5 6 7 8 9 10 11 12 13 14 15 16 17 18 19 20 21 22 23 24 25 26 27 28 29 30 31 32 33 34 35 36 37 38
000
FTUS41 KGYX 280231 AAB
TAFMHT
TAF AMD
KMHT 280231Z 2803/2824 23008KT P6SM FEW030 SCT120 OVC200
     FM280800 22007KT 6SM BR OVC015
     FM281300 20010KT P6SM BKN250
     FM282000 26009G17KT P6SM BKN250 PROB30 2820/2822 P6SM -TSRA
      BKN050CB=

USA.gov is the U.S. government's official web portal to all federal, state and local government web resources and services.